createdAt,value
2019-04-27T00:00:20.283Z,7.60
2019-04-27T00:02:50.310Z,7.60
2019-04-27T00:05:32.527Z,7.60
2019-04-27T00:08:02.840Z,7.50
2019-04-27T00:10:33.476Z,7.40
2019-04-27T00:13:05.581Z,7.30
2019-04-27T00:15:50.340Z,7.20
2019-04-27T00:18:36.952Z,7.20
2019-04-27T00:21:06.981Z,7.10
2019-04-27T00:23:35.459Z,6.90
2019-04-27T00:26:04.186Z,6.90
2019-04-27T00:28:33.200Z,6.80
2019-04-27T00:31:03.312Z,6.70
2019-04-27T00:33:33.830Z,6.50
2019-04-27T00:36:07.183Z,6.40
2019-04-27T00:38:39.655Z,6.40
2019-04-27T00:41:09.742Z,6.30
2019-04-27T00:43:38.234Z,6.20
2019-04-27T00:46:06.737Z,6.20
2019-04-27T00:48:35.142Z,6.10
2019-04-27T00:51:04.270Z,6.10
2019-04-27T00:53:33.521Z,6.00
2019-04-27T00:56:19.186Z,5.90
2019-04-27T00:58:49.349Z,5.80
2019-04-27T01:01:33.205Z,5.80
2019-04-27T01:04:06.296Z,5.80
2019-04-27T01:06:34.878Z,5.70
2019-04-27T01:09:03.662Z,5.60
2019-04-27T01:11:33.287Z,5.60
2019-04-27T01:14:03.738Z,5.50
2019-04-27T01:16:32.479Z,5.50
2019-04-27T01:19:01.589Z,5.40
2019-04-27T01:21:30.270Z,5.40
2019-04-27T01:23:58.955Z,5.40
2019-04-27T01:26:29.567Z,5.40
2019-04-27T01:28:59.723Z,5.30
2019-04-27T01:31:29.398Z,5.30
2019-04-27T01:33:59.030Z,5.10
2019-04-27T01:36:30.398Z,5.20
2019-04-27T01:38:59.504Z,5.30
2019-04-27T01:41:29.132Z,5.30
2019-04-27T01:43:59.106Z,5.40
2019-04-27T01:46:29.449Z,5.20
2019-04-27T01:48:59.059Z,5.20
2019-04-27T01:51:29.429Z,5.10
2019-04-27T01:53:59.364Z,5.00
2019-04-27T01:56:29.385Z,4.90
2019-04-27T01:58:59.495Z,4.80
2019-04-27T02:01:33.016Z,4.80
2019-04-27T02:04:09.510Z,4.90
2019-04-27T02:06:38.587Z,5.10
2019-04-27T02:09:10.020Z,5.00
2019-04-27T02:11:40.466Z,5.00
2019-04-27T02:14:09.515Z,5.00
2019-04-27T02:16:39.180Z,5.00
2019-04-27T02:19:11.412Z,4.90
2019-04-27T02:21:39.590Z,4.80
2019-04-27T02:24:11.185Z,4.90
2019-04-27T02:26:39.927Z,4.80
2019-04-27T02:29:13.262Z,4.80
2019-04-27T02:32:02.971Z,4.80
2019-04-27T02:34:35.841Z,4.60
2019-04-27T02:37:04.881Z,4.70
2019-04-27T02:39:33.450Z,4.50
2019-04-27T02:42:02.029Z,4.50
2019-04-27T02:44:32.055Z,4.50
2019-04-27T02:47:00.609Z,4.40
2019-04-27T02:49:30.386Z,4.30
2019-04-27T02:52:06.884Z,4.20
2019-04-27T02:54:35.331Z,4.20
2019-04-27T02:57:04.229Z,4.10
2019-04-27T02:59:32.638Z,4.20
2019-04-27T03:02:11.511Z,4.00
2019-04-27T03:04:40.262Z,4.00
2019-04-27T03:07:11.266Z,4.00
2019-04-27T03:09:39.708Z,3.90
2019-04-27T03:12:10.191Z,3.90
2019-04-27T03:14:55.317Z,3.90
2019-04-27T03:17:25.474Z,3.90
2019-04-27T03:19:59.751Z,3.90
2019-04-27T03:22:39.975Z,3.90
2019-04-27T03:25:14.715Z,3.80
2019-04-27T03:27:42.510Z,3.80
2019-04-27T03:30:13.215Z,3.80
2019-04-27T03:32:42.873Z,3.80
2019-04-27T03:35:13.237Z,3.90
2019-04-27T03:37:42.186Z,3.90
2019-04-27T03:40:11.136Z,4.00
2019-04-27T03:42:41.330Z,4.00
2019-04-27T03:45:10.892Z,4.00
2019-04-27T03:47:40.614Z,4.00
2019-04-27T03:50:11.869Z,4.10
2019-04-27T03:52:41.910Z,4.00
2019-04-27T03:55:21.095Z,4.10
2019-04-27T03:57:51.138Z,4.00
2019-04-27T04:00:24.058Z,3.90
2019-04-27T04:02:52.456Z,3.90
2019-04-27T04:05:20.835Z,3.90
2019-04-27T04:07:50.571Z,3.80
2019-04-27T04:10:20.039Z,3.80
2019-04-27T04:12:56.018Z,3.70
2019-04-27T04:15:33.702Z,3.70
2019-04-27T04:18:02.095Z,3.60
2019-04-27T04:20:30.705Z,3.60
2019-04-27T04:23:00.151Z,3.60
2019-04-27T04:25:30.209Z,3.80
2019-04-27T04:28:00.591Z,3.70
2019-04-27T04:30:30.257Z,3.80
2019-04-27T04:32:59.900Z,4.00
2019-04-27T04:35:32.590Z,4.00
2019-04-27T04:38:00.239Z,4.20
2019-04-27T04:40:33.083Z,4.30
2019-04-27T04:43:03.557Z,4.40
2019-04-27T04:45:34.584Z,4.50
2019-04-27T04:48:04.726Z,4.60
2019-04-27T04:50:33.142Z,4.60
2019-04-27T04:53:01.547Z,4.80
2019-04-27T04:55:30.768Z,4.90
2019-04-27T04:57:59.344Z,4.80
2019-04-27T05:00:29.642Z,4.90
2019-04-27T05:02:59.488Z,5.00
2019-04-27T05:05:29.338Z,5.10
2019-04-27T05:08:00.378Z,5.10
2019-04-27T05:10:28.847Z,5.20
2019-04-27T05:12:59.041Z,5.40
2019-04-27T05:15:29.216Z,5.50
2019-04-27T05:17:59.117Z,5.70
2019-04-27T05:20:32.102Z,5.70
2019-04-27T05:23:00.732Z,5.90
2019-04-27T05:25:29.455Z,5.90
2019-04-27T05:27:59.559Z,6.10
2019-04-27T05:30:28.661Z,6.30
2019-04-27T05:32:58.555Z,6.30
2019-04-27T05:35:27.282Z,6.50
2019-04-27T05:37:55.671Z,6.50
2019-04-27T05:40:24.335Z,6.70
2019-04-27T05:42:55.230Z,6.80
2019-04-27T05:45:57.782Z,6.80
2019-04-27T05:48:27.665Z,7.00
2019-04-27T05:50:58.925Z,7.30
2019-04-27T05:53:26.633Z,7.60
2019-04-27T05:55:55.031Z,7.90
2019-04-27T05:58:23.422Z,8.10
2019-04-27T06:00:51.860Z,8.30
2019-04-27T06:03:21.035Z,8.40
2019-04-27T06:05:49.625Z,8.60
2019-04-27T06:08:18.795Z,8.80
2019-04-27T06:10:48.899Z,8.90
2019-04-27T06:13:19.004Z,9.00
2019-04-27T06:15:47.480Z,9.20
2019-04-27T06:18:15.867Z,9.30
2019-04-27T06:20:53.300Z,9.50
2019-04-27T06:23:15.998Z,9.50
2019-04-27T06:25:44.415Z,9.50
2019-04-27T06:28:12.792Z,9.60
2019-04-27T06:30:41.554Z,9.60
2019-04-27T06:33:10.190Z,9.60
2019-04-27T06:35:39.961Z,9.60
2019-04-27T06:38:11.405Z,9.50
2019-04-27T06:40:39.127Z,9.50
2019-04-27T06:43:08.655Z,9.50
2019-04-27T06:45:38.782Z,9.50
2019-04-27T06:48:09.467Z,9.60
2019-04-27T06:50:38.936Z,9.50
2019-04-27T06:53:09.050Z,9.50
2019-04-27T06:55:39.179Z,9.50
2019-04-27T06:58:08.975Z,9.50
2019-04-27T07:00:39.421Z,9.60
2019-04-27T07:03:08.986Z,9.60
2019-04-27T07:05:38.802Z,9.50
2019-04-27T07:08:08.895Z,9.50
2019-04-27T07:10:39.027Z,9.50
2019-04-27T07:13:09.564Z,9.50
2019-04-27T07:15:38.711Z,9.50
2019-04-27T07:18:07.577Z,9.40
2019-04-27T07:20:35.971Z,9.40
2019-04-27T07:23:04.736Z,9.40
2019-04-27T07:25:33.110Z,9.50
2019-04-27T07:28:01.519Z,9.50
2019-04-27T07:30:31.558Z,9.70
2019-04-27T07:33:00.376Z,9.70
2019-04-27T07:35:29.584Z,9.70
2019-04-27T07:37:58.798Z,9.80
2019-04-27T07:40:30.170Z,9.80
2019-04-27T07:42:59.413Z,9.70
2019-04-27T07:45:35.682Z,9.80
2019-04-27T07:48:04.157Z,9.80
2019-04-27T07:50:32.640Z,9.80
2019-04-27T07:53:01.362Z,9.70
2019-04-27T07:55:29.777Z,9.70
2019-04-27T07:57:59.480Z,9.70
2019-04-27T08:00:28.979Z,9.80
2019-04-27T08:02:59.071Z,9.80
2019-04-27T08:05:29.159Z,9.90
2019-04-27T08:07:58.021Z,9.80
2019-04-27T08:10:26.414Z,9.70
2019-04-27T08:12:54.803Z,9.70
2019-04-27T08:15:23.450Z,9.70
2019-04-27T08:17:52.104Z,9.80
2019-04-27T08:20:21.239Z,9.80
2019-04-27T08:22:49.815Z,9.80
2019-04-27T08:25:18.975Z,9.80
2019-04-27T08:28:08.949Z,9.80
2019-04-27T08:30:42.178Z,9.70
2019-04-27T08:33:11.937Z,9.70
2019-04-27T08:35:40.735Z,9.80
2019-04-27T08:38:09.447Z,9.80
2019-04-27T08:40:39.339Z,9.80
2019-04-27T08:43:15.694Z,9.80
2019-04-27T08:45:44.103Z,10.00
2019-04-27T08:48:12.538Z,10.10
2019-04-27T08:50:42.132Z,10.30
2019-04-27T08:53:11.037Z,10.30
2019-04-27T08:55:39.686Z,10.50
2019-04-27T08:58:09.856Z,10.70
2019-04-27T09:00:39.058Z,10.80
2019-04-27T09:03:09.352Z,10.70
2019-04-27T09:05:49.170Z,10.50
2019-04-27T09:08:34.893Z,10.60
2019-04-27T09:11:11.302Z,10.70
2019-04-27T09:13:44.306Z,10.80
2019-04-27T09:16:18.623Z,10.90
2019-04-27T09:18:49.830Z,10.70
2019-04-27T09:21:20.493Z,11.00
2019-04-27T09:23:48.952Z,11.00
2019-04-27T09:26:18.615Z,11.10
2019-04-27T09:28:47.170Z,11.20
2019-04-27T09:31:15.569Z,11.10
2019-04-27T09:33:44.014Z,11.10
2019-04-27T09:36:12.431Z,11.00
2019-04-27T09:38:41.072Z,10.90
2019-04-27T09:41:09.477Z,11.00
2019-04-27T09:43:37.881Z,11.00
2019-04-27T09:46:06.301Z,11.10
2019-04-27T09:48:36.231Z,11.00
2019-04-27T09:51:06.439Z,10.90
2019-04-27T09:53:36.445Z,11.10
2019-04-27T09:56:05.876Z,11.20
2019-04-27T09:58:36.512Z,11.30
2019-04-27T10:01:06.607Z,11.20
2019-04-27T10:03:36.081Z,11.20
2019-04-27T10:06:11.615Z,11.30
2019-04-27T10:08:40.019Z,11.30
2019-04-27T10:11:08.426Z,11.40
2019-04-27T10:13:36.866Z,11.20
2019-04-27T10:16:06.113Z,11.30
2019-04-27T10:18:36.628Z,11.10
2019-04-27T10:21:06.351Z,11.00
2019-04-27T10:23:38.452Z,10.90
2019-04-27T10:26:06.942Z,10.90
2019-04-27T10:28:35.773Z,10.80
2019-04-27T10:31:07.041Z,10.70
2019-04-27T10:33:35.952Z,10.60
2019-04-27T10:36:06.581Z,10.70
2019-04-27T10:38:36.010Z,10.60
2019-04-27T10:41:05.688Z,10.50
2019-04-27T10:43:35.058Z,10.50
2019-04-27T10:46:03.714Z,10.60
2019-04-27T10:48:32.351Z,10.70
2019-04-27T10:51:00.777Z,10.70
2019-04-27T10:53:29.202Z,10.80
2019-04-27T10:55:57.783Z,11.00
2019-04-27T10:58:27.293Z,11.00
2019-04-27T11:00:58.412Z,11.10
2019-04-27T11:03:46.225Z,11.30
2019-04-27T11:06:26.173Z,11.20
2019-04-27T11:08:56.079Z,11.30
2019-04-27T11:11:25.908Z,11.40
2019-04-27T11:13:56.952Z,11.40
2019-04-27T11:16:25.134Z,11.50
2019-04-27T11:18:53.826Z,11.60
2019-04-27T11:21:22.238Z,11.80
2019-04-27T11:23:50.951Z,11.10
2019-04-27T11:26:19.361Z,10.20
2019-04-27T11:28:47.810Z,9.60
2019-04-27T11:31:17.256Z,9.10
2019-04-27T11:33:46.514Z,8.80
2019-04-27T11:36:19.382Z,8.60
2019-04-27T11:38:49.489Z,8.20
2019-04-27T11:41:18.386Z,8.10
2019-04-27T11:43:46.802Z,8.00
2019-04-27T11:46:16.379Z,7.90
2019-04-27T11:48:46.515Z,7.90
2019-04-27T11:51:17.082Z,7.90
2019-04-27T11:53:46.828Z,8.00
2019-04-27T11:56:17.451Z,8.20
2019-04-27T11:58:47.150Z,8.70
2019-04-27T12:01:16.065Z,8.70
2019-04-27T12:03:44.777Z,8.90
2019-04-27T12:06:13.415Z,8.90
2019-04-27T12:08:41.805Z,8.90
2019-04-27T12:11:10.203Z,8.90
2019-04-27T12:13:38.869Z,8.80
2019-04-27T12:16:07.663Z,8.70
2019-04-27T12:18:36.499Z,8.60
2019-04-27T12:21:06.129Z,8.60
2019-04-27T12:23:37.099Z,8.40
2019-04-27T12:26:05.810Z,8.20
2019-04-27T12:28:35.960Z,8.20
2019-04-27T12:31:25.707Z,8.20
2019-04-27T12:33:56.035Z,8.40
2019-04-27T12:36:25.842Z,8.80
2019-04-27T12:38:54.449Z,9.10
2019-04-27T12:41:22.851Z,9.30
2019-04-27T12:43:51.308Z,9.40
2019-04-27T12:46:19.724Z,9.50
2019-04-27T12:48:48.363Z,9.50
2019-04-27T12:51:16.824Z,9.70
2019-04-27T12:54:08.897Z,10.00
2019-04-27T12:56:45.768Z,9.50
2019-04-27T12:59:19.314Z,9.60
2019-04-27T13:01:47.826Z,10.00
2019-04-27T13:04:16.317Z,10.20
2019-04-27T13:06:44.786Z,10.10
2019-04-27T13:09:13.265Z,9.90
2019-04-27T13:11:41.714Z,9.90
2019-04-27T13:14:10.115Z,9.70
2019-04-27T13:16:38.753Z,9.50
2019-04-27T13:19:07.165Z,9.50
2019-04-27T13:21:36.558Z,9.80
2019-04-27T13:24:07.013Z,10.10
2019-04-27T13:26:36.149Z,10.50
2019-04-27T13:29:06.737Z,10.80
2019-04-27T13:31:36.868Z,10.80
2019-04-27T13:34:05.795Z,10.80
2019-04-27T13:36:34.326Z,10.70
2019-04-27T13:39:06.212Z,10.50
2019-04-27T13:41:41.631Z,10.40
2019-04-27T13:44:10.042Z,10.30
2019-04-27T13:46:58.365Z,10.30
2019-04-27T13:49:31.618Z,10.40
2019-04-27T13:52:02.087Z,10.50
2019-04-27T13:54:31.737Z,10.70
2019-04-27T13:57:00.141Z,11.20
2019-04-27T13:59:28.534Z,11.60
2019-04-27T14:01:57.226Z,12.00
2019-04-27T14:04:25.610Z,12.00
2019-04-27T14:06:54.047Z,12.00
2019-04-27T14:09:28.598Z,12.30
2019-04-27T14:12:01.400Z,12.10
2019-04-27T14:14:30.040Z,12.20
2019-04-27T14:17:04.523Z,12.10
2019-04-27T14:19:33.294Z,11.80
2019-04-27T14:22:02.001Z,11.40
2019-04-27T14:24:41.136Z,11.20
2019-04-27T14:27:10.386Z,11.40
2019-04-27T14:29:39.205Z,11.90
2019-04-27T14:32:08.656Z,12.20
2019-04-27T14:34:37.297Z,12.20
2019-04-27T14:37:05.826Z,12.00
2019-04-27T14:39:34.516Z,11.90
2019-04-27T14:42:03.242Z,11.80
2019-04-27T14:44:31.664Z,11.90
2019-04-27T14:47:00.227Z,11.90
2019-04-27T14:49:29.061Z,11.80
2019-04-27T14:51:58.509Z,11.70
2019-04-27T14:54:28.787Z,11.70
2019-04-27T14:56:58.935Z,11.90
2019-04-27T14:59:27.646Z,12.00
2019-04-27T15:01:56.292Z,11.90
2019-04-27T15:04:25.009Z,12.10
2019-04-27T15:06:53.409Z,11.90
2019-04-27T15:09:24.003Z,11.60
2019-04-27T15:11:53.618Z,11.30
2019-04-27T15:14:23.962Z,11.10
2019-04-27T15:16:52.739Z,11.00
2019-04-27T15:19:22.833Z,10.80
2019-04-27T15:21:58.572Z,10.60
2019-04-27T15:24:23.034Z,10.40
2019-04-27T15:26:54.308Z,10.40
2019-04-27T15:29:25.357Z,10.40
2019-04-27T15:31:55.860Z,10.50
2019-04-27T15:34:42.320Z,10.50
2019-04-27T15:37:12.406Z,10.50
2019-04-27T15:39:42.754Z,10.00
2019-04-27T15:42:12.789Z,9.70
2019-04-27T15:44:44.115Z,9.60
2019-04-27T15:47:12.053Z,9.60
2019-04-27T15:49:45.301Z,9.60
2019-04-27T15:52:10.949Z,9.80
2019-04-27T15:54:39.602Z,10.00
2019-04-27T15:57:10.527Z,10.20
2019-04-27T15:59:40.924Z,10.30
2019-04-27T16:02:12.184Z,10.40
2019-04-27T16:04:40.019Z,10.50
2019-04-27T16:07:09.022Z,10.40
2019-04-27T16:09:38.739Z,10.40
2019-04-27T16:12:12.542Z,10.60
2019-04-27T16:14:40.887Z,10.60
2019-04-27T16:17:11.405Z,10.50
2019-04-27T16:19:42.651Z,10.00
2019-04-27T16:22:09.714Z,9.70
2019-04-27T16:24:39.115Z,9.50
2019-04-27T16:27:07.645Z,9.10
2019-04-27T16:29:36.371Z,8.80
2019-04-27T16:32:09.597Z,8.60
2019-04-27T16:34:39.564Z,8.50
2019-04-27T16:37:05.134Z,8.30
2019-04-27T16:39:33.834Z,8.30
2019-04-27T16:42:02.483Z,8.20
2019-04-27T16:44:31.018Z,8.20
2019-04-27T16:46:59.487Z,8.20
2019-04-27T16:49:28.996Z,8.20
2019-04-27T16:51:59.044Z,8.30
2019-04-27T16:54:28.254Z,8.40
2019-04-27T16:57:03.263Z,8.40
2019-04-27T16:59:43.421Z,8.60
2019-04-27T17:02:03.082Z,8.50
2019-04-27T17:04:31.601Z,8.50
2019-04-27T17:07:00.359Z,8.40
2019-04-27T17:09:29.255Z,8.30
2019-04-27T17:11:59.272Z,8.30
2019-04-27T17:14:35.053Z,8.20
2019-04-27T17:17:11.999Z,8.20
2019-04-27T17:19:43.910Z,8.20
2019-04-27T17:22:14.746Z,8.10
2019-04-27T17:24:46.797Z,8.10
2019-04-27T17:27:16.425Z,8.00
2019-04-27T17:29:50.192Z,7.90
2019-04-27T17:32:18.169Z,7.90
2019-04-27T17:34:49.298Z,7.90
2019-04-27T17:37:17.724Z,8.00
2019-04-27T17:39:46.133Z,8.10
2019-04-27T17:42:14.533Z,8.30
2019-04-27T17:44:43.308Z,8.40
2019-04-27T17:47:12.734Z,8.50
2019-04-27T17:49:41.431Z,8.60
2019-04-27T17:52:13.089Z,8.70
2019-04-27T17:54:40.884Z,8.80
2019-04-27T17:57:13.530Z,8.80
2019-04-27T17:59:40.714Z,8.80
2019-04-27T18:02:09.409Z,8.80
2019-04-27T18:04:40.927Z,8.80
2019-04-27T18:07:13.785Z,8.70
2019-04-27T18:09:43.653Z,8.60
2019-04-27T18:12:14.839Z,8.40
2019-04-27T18:14:43.172Z,8.30
2019-04-27T18:17:12.217Z,8.20
2019-04-27T18:19:44.302Z,8.00
2019-04-27T18:22:12.614Z,7.90
2019-04-27T18:24:42.644Z,7.80
2019-04-27T18:27:21.494Z,7.80
2019-04-27T18:29:50.149Z,7.70
2019-04-27T18:32:18.543Z,7.60
2019-04-27T18:34:49.434Z,7.60
2019-04-27T18:37:20.911Z,7.60
2019-04-27T18:39:50.999Z,7.60
2019-04-27T18:42:18.121Z,7.60
2019-04-27T18:44:48.577Z,7.70
2019-04-27T18:47:17.238Z,7.70
2019-04-27T18:49:53.725Z,7.70
2019-04-27T18:52:47.244Z,7.70
2019-04-27T18:55:11.444Z,7.80
2019-04-27T18:57:41.223Z,7.70
2019-04-27T19:00:11.694Z,7.70
2019-04-27T19:02:40.106Z,7.60
2019-04-27T19:05:09.575Z,7.60
2019-04-27T19:07:38.313Z,7.50
2019-04-27T19:10:08.752Z,7.50
2019-04-27T19:12:39.200Z,7.40
2019-04-27T19:15:08.151Z,7.40
2019-04-27T19:17:38.503Z,7.30
2019-04-27T19:20:09.916Z,7.20
2019-04-27T19:22:38.580Z,7.10
2019-04-27T19:25:09.659Z,7.10
2019-04-27T19:27:45.858Z,7.00
2019-04-27T19:30:15.989Z,7.10
2019-04-27T19:32:44.418Z,7.10
2019-04-27T19:35:13.094Z,7.10
2019-04-27T19:37:42.255Z,7.20
2019-04-27T19:40:18.683Z,7.20
2019-04-27T19:42:48.664Z,7.30
2019-04-27T19:45:20.800Z,7.30
2019-04-27T19:47:48.697Z,7.30
2019-04-27T19:50:19.227Z,7.20
2019-04-27T19:52:50.177Z,7.20
2019-04-27T19:55:18.928Z,7.20
2019-04-27T19:57:49.651Z,7.20
2019-04-27T20:00:36.794Z,7.20
2019-04-27T20:03:06.579Z,7.10
2019-04-27T20:05:36.196Z,7.10
2019-04-27T20:08:06.641Z,7.00
2019-04-27T20:10:38.745Z,6.90
2019-04-27T20:13:10.918Z,6.90
2019-04-27T20:15:43.210Z,6.80
2019-04-27T20:18:13.411Z,6.80
2019-04-27T20:20:42.015Z,6.90
2019-04-27T20:23:11.753Z,6.90
2019-04-27T20:25:44.162Z,7.00
2019-04-27T20:28:12.728Z,7.10
2019-04-27T20:30:41.703Z,7.10
2019-04-27T20:33:11.068Z,7.10
2019-04-27T20:35:43.006Z,7.10
2019-04-27T20:38:12.880Z,7.10
2019-04-27T20:40:41.775Z,7.10
2019-04-27T20:43:10.525Z,7.10
2019-04-27T20:45:41.243Z,7.10
2019-04-27T20:50:59.101Z,7.10
2019-04-27T20:56:18.216Z,7.10
2019-04-27T20:58:46.746Z,7.10
2019-04-27T21:01:15.185Z,7.10
2019-04-27T21:03:45.236Z,7.10
2019-04-27T21:06:17.321Z,7.10
2019-04-27T21:08:45.978Z,7.10
2019-04-27T21:11:14.428Z,7.10
2019-04-27T21:13:42.935Z,7.10
2019-04-27T21:16:12.613Z,7.10
2019-04-27T21:18:41.974Z,7.10
2019-04-27T21:24:15.489Z,7.10
2019-04-27T21:26:51.276Z,7.10
2019-04-27T21:29:27.521Z,7.20
2019-04-27T21:34:53.910Z,7.20
2019-04-27T21:37:33.125Z,7.30
2019-04-27T21:40:32.274Z,7.30
2019-04-27T21:43:04.060Z,7.20
2019-04-27T21:45:33.642Z,7.20
2019-04-27T21:48:02.793Z,7.20
2019-04-27T21:50:33.187Z,7.30
2019-04-27T21:53:11.021Z,7.30
2019-04-27T21:58:37.686Z,7.30
2019-04-27T22:01:21.636Z,7.30
2019-04-27T22:04:01.040Z,7.30
2019-04-27T22:06:41.750Z,7.30
2019-04-27T22:09:13.086Z,7.20
2019-04-27T22:11:41.720Z,7.30
2019-04-27T22:14:18.902Z,7.20
2019-04-27T22:19:36.926Z,7.10
2019-04-27T22:22:07.106Z,7.20
2019-04-27T22:24:37.961Z,7.20
2019-04-27T22:27:08.427Z,7.20
2019-04-27T22:29:37.256Z,7.20
2019-04-27T22:32:05.944Z,7.20
2019-04-27T22:34:34.397Z,7.20
2019-04-27T22:37:02.880Z,7.20
2019-04-27T22:39:36.237Z,7.20
2019-04-27T22:42:15.101Z,7.20
2019-04-27T22:44:46.047Z,7.20
2019-04-27T22:47:14.743Z,7.30
2019-04-27T22:49:52.138Z,7.20
2019-04-27T22:55:22.844Z,7.20
2019-04-27T22:57:53.589Z,7.20
2019-04-27T23:00:31.086Z,7.20
2019-04-27T23:03:11.307Z,7.20
2019-04-27T23:05:46.760Z,7.20
2019-04-27T23:08:15.706Z,7.10
2019-04-27T23:10:44.337Z,7.20
2019-04-27T23:13:14.012Z,7.20
2019-04-27T23:15:44.690Z,7.20
2019-04-27T23:18:13.568Z,7.20
2019-04-27T23:20:42.821Z,7.20
2019-04-27T23:23:11.699Z,7.20
2019-04-27T23:25:42.422Z,7.10
2019-04-27T23:28:11.042Z,7.10
2019-04-27T23:30:44.513Z,7.10
2019-04-27T23:33:13.132Z,7.10
2019-04-27T23:35:42.171Z,7.00
2019-04-27T23:38:17.559Z,7.00
2019-04-27T23:40:41.754Z,7.00
2019-04-27T23:43:11.497Z,6.90
2019-04-27T23:45:41.908Z,6.90
2019-04-27T23:48:12.322Z,6.90
2019-04-27T23:50:43.538Z,6.80
2019-04-27T23:53:15.364Z,6.80
2019-04-27T23:55:44.104Z,6.80
2019-04-27T23:58:16.097Z,6.80
